Time;durP1;ratioP1;P1;durP2;ratioP2;P2;SDS_P1;SDS_P2;PMS_P1;PMS_P2;Temp;Humidity;BMP_temperature;BMP_pressure;BME280_temperature;BME280_humidity;BME280_pressure;Samples;Min_cycle;Max_cycle;Signal;HPM_P1;HPM_P2
2023/01/29 00:00:36;;;;;;;;;51.60;38.40;;;;;4.50;54.00;102967.94;2011169;28;3609853;-84
2023/01/29 00:01:48;;;;;;;;;41.67;35.00;;;;;4.48;53.50;102959.22;2014691;27;3611695;-85
2023/01/29 00:03:00;;;;;;;;;47.60;36.60;;;;;4.47;53.53;102967.84;2018405;27;3593985;-84
2023/01/29 00:04:12;;;;;;;;;47.33;39.67;;;;;4.46;53.90;102973.91;2037866;28;3580437;-84
2023/01/29 00:05:24;;;;;;;;;49.40;39.80;;;;;4.44;54.19;102973.00;2027668;28;3589210;-84
2023/01/29 00:06:38;;;;;;;;;50.80;39.40;;;;;4.42;53.67;102972.03;2033421;28;3585630;-84
2023/01/29 00:07:49;;;;;;;;;56.00;40.50;;;;;4.38;53.67;102962.38;2019722;28;2871117;-84
2023/01/29 00:09:01;;;;;;;;;46.33;38.00;;;;;4.37;53.96;102963.25;2013382;27;3587743;-85
2023/01/29 00:10:13;;;;;;;;;49.67;36.67;;;;;4.35;54.01;102960.56;2035076;28;3610628;-84
2023/01/29 00:11:25;;;;;;;;;52.80;40.40;;;;;4.36;54.31;102958.84;2022988;27;3604873;-84
2023/01/29 00:12:36;;;;;;;;;50.33;40.00;;;;;4.30;54.12;102951.75;2021378;27;3605466;-84
2023/01/29 00:13:49;;;;;;;;;55.00;37.67;;;;;4.27;54.49;102957.72;2021035;27;3608600;-84
2023/01/29 00:15:00;;;;;;;;;52.67;39.67;;;;;4.24;54.43;102957.66;2018063;27;3622570;-84
2023/01/29 00:16:13;;;;;;;;;50.80;38.80;;;;;4.21;54.53;102957.56;2016481;28;3608524;-84
2023/01/29 00:17:24;;;;;;;;;52.00;40.00;;;;;4.17;54.49;102955.72;2014041;27;3615875;-84
2023/01/29 00:18:38;;;;;;;;;48.00;37.80;;;;;4.14;54.84;102956.50;2024000;27;3603690;-84
2023/01/29 00:19:48;;;;;;;;;51.00;38.50;;;;;4.14;54.83;102961.72;2001650;27;2854427;-84
2023/01/29 00:21:00;;;;;;;;;53.67;40.33;;;;;4.09;55.06;102960.69;2021784;27;3615875;-84
2023/01/29 00:22:12;;;;;;;;;46.67;38.00;;;;;4.08;54.78;102956.31;2009114;28;3596089;-84
2023/01/29 00:23:25;;;;;;;;;51.20;40.40;;;;;4.02;54.81;102950.94;2042077;28;3603699;-84
2023/01/29 00:24:36;;;;;;;;;54.00;40.00;;;;;3.99;54.97;102945.63;1986508;28;2866887;-84
2023/01/29 00:25:48;;;;;;;;;54.67;41.33;;;;;3.95;54.66;102949.88;2005385;28;3614832;-84
2023/01/29 00:27:00;;;;;;;;;55.33;42.00;;;;;3.94;55.19;102950.69;2002349;28;3593992;-84
2023/01/29 00:28:12;;;;;;;;;51.80;40.80;;;;;3.93;55.21;102951.50;2016553;28;3591860;-85
2023/01/29 00:29:23;;;;;;;;;53.00;42.00;;;;;3.87;55.29;102951.34;2022366;27;3606469;-84
2023/01/29 00:30:36;;;;;;;;;52.00;41.00;;;;;3.83;55.41;102946.03;2013132;28;3582527;-84
2023/01/29 00:31:48;;;;;;;;;60.33;45.67;;;;;3.83;54.99;102955.56;2024518;28;3620030;-84
2023/01/29 00:33:00;;;;;;;;;64.00;48.00;;;;;3.81;55.29;102955.50;2019865;27;3627366;-84
2023/01/29 00:34:12;;;;;;;;;68.33;51.00;;;;;3.77;55.32;102955.38;2021667;27;3630455;-84
2023/01/29 00:35:24;;;;;;;;;59.67;46.33;;;;;3.77;55.10;102956.25;2007202;28;3627675;-84
2023/01/29 00:36:36;;;;;;;;;58.33;45.67;;;;;3.71;55.82;102951.72;2007235;28;3623166;-84
2023/01/29 00:37:48;;;;;;;;;62.00;46.67;;;;;3.72;55.26;102947.44;2013549;28;3629429;-84
2023/01/29 00:39:09;;;;;;;;;67.33;50.00;;;;;3.69;55.82;102949.91;2014576;28;3629423;-84
2023/01/29 00:40:21;;;;;;;;;66.33;48.67;;;;;3.66;55.54;102952.41;1999743;28;3633594;-84
2023/01/29 00:46:05;;;;;;;;;59.33;40.33;;;;;3.52;56.15;102938.97;2000947;28;3630472;-84
2023/01/29 00:47:29;;;;;;;;;58.50;45.00;;;;;3.50;55.93;102941.53;2000427;28;2873216;-84
2023/01/29 00:48:43;;;;;;;;;53.00;41.00;;;;;3.48;55.71;102944.06;1995890;28;3596178;-84
2023/01/29 00:49:57;;;;;;;;;53.00;41.00;;;;;3.46;56.10;102950.06;1993122;28;3612718;-84
2023/01/29 00:51:09;;;;;;;;;58.33;39.33;;;;;3.47;56.38;102944.03;1996450;28;3614821;-84
2023/01/29 00:52:23;;;;;;;;;53.33;43.00;;;;;3.46;56.31;102944.84;2009634;28;3603372;-84
2023/01/29 00:53:34;;;;;;;;;54.00;40.00;;;;;3.42;56.02;102943.00;1992109;28;2844019;-85
2023/01/29 00:54:46;;;;;;;;;53.20;37.40;;;;;3.43;56.47;102939.56;2023271;28;3605427;-84
2023/01/29 00:55:58;;;;;;;;;54.00;38.00;;;;;3.40;56.02;102939.47;2029776;28;3604446;-84
2023/01/29 00:57:10;;;;;;;;;52.00;37.33;;;;;3.39;56.20;102948.97;2014464;28;3612753;-84
2023/01/29 00:58:27;;;;;;;;;53.00;38.00;;;;;3.35;56.41;102947.13;2015559;28;3613722;-84
2023/01/29 00:59:37;;;;;;;;;56.00;41.00;;;;;3.34;56.70;102946.22;2001337;28;2866974;-84
2023/01/29 01:00:50;;;;;;;;;54.67;39.00;;;;;3.34;56.20;102950.53;2010785;28;3589800;-85
2023/01/29 01:03:32;;;;;;;;;48.50;36.00;;;;;3.26;56.65;102939.88;1997767;28;2856539;-84
2023/01/29 01:04:43;;;;;;;;;54.00;38.00;;;;;3.25;56.39;102932.94;2001041;28;2869006;-84
2023/01/29 01:06:03;;;;;;;;;47.00;35.00;;;;;3.25;57.12;102941.63;2013734;28;3606788;-84
2023/01/29 01:07:14;;;;;;;;;47.67;38.67;;;;;3.24;57.28;102942.44;1992845;28;3585639;-85
2023/01/29 01:11:26;;;;;;;;;44.00;35.00;;;;;3.15;57.18;102940.41;2000541;28;3591886;-84
2023/01/29 01:12:38;;;;;;;;;46.60;36.60;;;;;3.13;57.09;102930.81;2043233;28;3610710;-84
2023/01/29 01:13:50;;;;;;;;;42.00;33.33;;;;;3.11;57.03;102935.94;2002752;28;3612745;-85
2023/01/29 01:15:02;;;;;;;;;53.00;39.80;;;;;3.09;56.82;102940.19;2004257;28;3580452;-84
2023/01/29 01:16:17;;;;;;;;;55.00;39.33;;;;;3.08;57.18;102938.44;2031898;28;3603344;-84
2023/01/29 01:17:28;;;;;;;;;42.50;36.00;;;;;3.06;57.62;102929.72;2000008;28;2850272;-84
2023/01/29 01:18:40;;;;;;;;;52.67;39.00;;;;;3.07;57.23;102936.66;2013442;28;3598152;-84
2023/01/29 01:19:51;;;;;;;;;54.50;42.00;;;;;3.04;57.45;102941.75;2001388;28;2858559;-84
2023/01/29 01:21:03;;;;;;;;;40.00;38.20;;;;;3.02;56.71;102935.63;2017728;28;3572067;-84
2023/01/29 01:22:15;;;;;;;;;48.67;38.00;;;;;3.01;57.42;102933.88;2028906;27;3605451;-84
2023/01/29 01:23:26;;;;;;;;;50.00;38.00;;;;;2.98;57.54;102933.75;2017395;28;2850260;-84
2023/01/29 01:24:38;;;;;;;;;51.00;38.00;;;;;2.99;57.63;102939.00;1989221;28;3585641;-84
2023/01/29 01:25:50;;;;;;;;;49.00;38.20;;;;;2.95;57.01;102931.94;2022071;28;3586678;-84
2023/01/29 01:27:02;;;;;;;;;55.00;42.33;;;;;2.95;57.74;102937.13;2029360;28;3612782;-84
2023/01/29 01:28:14;;;;;;;;;53.20;39.20;;;;;2.92;57.70;102931.81;2023243;28;3590816;-85
2023/01/29 01:29:26;;;;;;;;;43.20;34.20;;;;;2.92;57.33;102935.31;2019592;28;3601611;-84
2023/01/29 01:30:38;;;;;;;;;46.00;38.00;;;;;2.93;57.98;102938.78;2028114;28;3603392;-84
2023/01/29 01:31:52;;;;;;;;;63.67;42.33;;;;;2.90;57.77;102936.09;2001593;28;3638779;-84
2023/01/29 01:33:03;;;;;;;;;56.00;37.00;;;;;2.88;57.98;102936.03;1992631;28;2883665;-84
2023/01/29 01:34:15;;;;;;;;;52.00;38.00;;;;;2.89;58.04;102943.00;2000002;28;3614778;-84
2023/01/29 01:35:27;;;;;;;;;52.60;40.40;;;;;2.87;57.62;102942.06;2032813;28;3587684;-84
2023/01/29 01:36:39;;;;;;;;;54.33;38.67;;;;;2.86;57.76;102945.50;2031573;27;3600264;-84
2023/01/29 01:37:51;;;;;;;;;52.00;38.67;;;;;2.85;58.06;102946.31;2021882;27;3597145;-84
2023/01/29 01:39:03;;;;;;;;;57.67;42.67;;;;;2.85;57.94;102940.22;2014046;27;3628350;-84
2023/01/29 01:40:21;;;;;;;;;52.20;39.00;;;;;2.85;58.18;102941.13;2009004;28;3589793;-84
2023/01/29 01:41:32;;;;;;;;;46.67;37.00;;;;;2.84;58.13;102941.06;1984825;28;3591349;-84
2023/01/29 01:42:54;;;;;;;;;49.33;38.00;;;;;2.81;58.03;102947.91;2036146;28;3607525;-84
2023/01/29 01:44:06;;;;;;;;;53.67;38.00;;;;;2.82;58.09;102946.19;1999651;28;3596069;-84
2023/01/29 01:45:30;;;;;;;;;54.00;40.00;;;;;2.81;58.44;102940.13;2035985;27;3594029;-84
2023/01/29 01:46:42;;;;;;;;;42.67;31.00;;;;;2.79;57.77;102946.97;2026653;27;3598162;-84
2023/01/29 01:48:16;;;;;;;;;49.40;34.60;;;;;2.81;57.97;102945.31;2036205;28;3623539;-85
2023/01/29 01:49:27;;;;;;;;;53.00;38.67;;;;;2.76;58.08;102946.88;2000549;28;3602345;-84
2023/01/29 01:50:45;;;;;;;;;50.33;40.33;;;;;2.76;58.67;102946.00;2033636;28;3591922;-84
2023/01/29 01:51:56;;;;;;;;;49.50;38.00;;;;;2.75;58.35;102947.69;2016943;28;2847136;-84
2023/01/29 01:53:11;;;;;;;;;52.60;35.80;;;;;2.77;58.48;102947.75;1987910;28;3621074;-84
2023/01/29 01:54:27;;;;;;;;;49.00;38.00;;;;;2.73;58.82;102938.09;2008240;28;3614758;-84
2023/01/29 01:55:51;;;;;;;;;47.67;38.00;;;;;2.74;58.63;102945.91;1989547;28;3591850;-84
2023/01/29 01:57:14;;;;;;;;;42.67;36.33;;;;;2.74;58.69;102952.84;2016770;28;3620082;-84
2023/01/29 01:58:49;;;;;;;;;55.00;41.00;;;;;2.69;58.77;102942.31;1999647;28;3597099;-84
2023/01/29 02:00:11;;;;;;;;;54.00;40.00;;;;;2.66;58.43;102948.28;1995911;28;3592963;-84
2023/01/29 02:01:28;;;;;;;;;45.50;38.00;;;;;2.68;58.06;102948.31;2024868;28;2833964;-84
2023/01/29 02:10:41;;;;;;;;;48.00;38.67;;;;;2.61;58.77;102960.19;1993448;28;3589894;-84
2023/01/29 02:11:52;;;;;;;;;53.00;40.50;;;;;2.57;59.23;102958.28;2020721;28;2852340;-84
2023/01/29 02:13:06;;;;;;;;;56.00;39.40;;;;;2.56;58.31;102954.84;2032879;28;3612063;-84
2023/01/29 02:14:17;;;;;;;;;50.00;38.67;;;;;2.55;58.54;102947.88;2009010;28;3605443;-84
2023/01/29 02:15:29;;;;;;;;;48.00;39.60;;;;;2.54;58.76;102953.91;1998929;28;3576266;-84
2023/01/29 02:16:41;;;;;;;;;57.00;42.67;;;;;2.56;58.86;102962.63;2031138;28;3625240;-84
2023/01/29 02:17:53;;;;;;;;;54.20;42.60;;;;;2.55;59.09;102958.25;2011492;28;3599165;-84
2023/01/29 02:19:13;;;;;;;;;51.20;41.80;;;;;2.54;58.82;102959.09;2004396;28;3590133;-84
2023/01/29 02:20:32;;;;;;;;;49.67;38.00;;;;;2.52;59.19;102957.28;2012205;28;3605451;-84
2023/01/29 02:21:43;;;;;;;;;36.33;35.33;;;;;2.53;58.66;102959.91;1993197;28;3597099;-84
2023/01/29 02:23:01;;;;;;;;;43.86;30.29;;;;;2.53;58.67;102959.91;2047722;28;2865933;-84
2023/01/29 02:24:18;;;;;;;;;50.33;39.67;;;;;2.52;59.38;102954.69;2021826;28;3591930;-84
2023/01/29 02:25:43;;;;;;;;;53.00;39.00;;;;;2.52;59.61;102952.06;2025203;27;2850272;-84
2023/01/29 02:27:11;;;;;;;;;57.00;40.00;;;;;2.46;58.80;102953.63;2024998;27;2869003;-84
2023/01/29 02:28:44;;;;;;;;;44.00;37.00;;;;;2.49;59.85;102959.75;2000121;28;3587744;-84
2023/01/29 02:29:57;;;;;;;;;54.00;39.00;;;;;2.49;59.32;102954.56;2023592;28;2876322;-84
2023/01/29 02:31:15;;;;;;;;;39.50;34.50;;;;;2.46;58.72;102964.00;1992040;28;2858929;-84
2023/01/29 02:32:26;;;;;;;;;39.33;30.67;;;;;2.45;58.69;102958.72;1998774;28;3607513;-84
2023/01/29 02:34:01;;;;;;;;;54.60;40.40;;;;;2.44;59.74;102959.59;2017622;28;3599186;-84
2023/01/29 02:35:28;;;;;;;;;54.50;42.00;;;;;2.43;59.30;102952.59;1992150;28;2854448;-84
2023/01/29 02:36:55;;;;;;;;;45.33;37.33;;;;;2.43;59.42;102960.38;1992867;28;3597628;-84
2023/01/29 02:38:33;;;;;;;;;59.00;40.00;;;;;2.41;59.64;102949.97;1995042;28;2866923;-84
2023/01/29 02:39:55;;;;;;;;;45.00;35.00;;;;;2.41;59.32;102956.84;1995733;28;2874233;-84
2023/01/29 02:41:15;;;;;;;;;48.00;39.00;;;;;2.38;59.76;102955.03;1993764;28;2867980;-84
2023/01/29 02:42:40;;;;;;;;;55.00;40.67;;;;;2.36;59.43;102951.50;1991514;28;3597090;-84
2023/01/29 02:43:58;;;;;;;;;39.00;37.50;;;;;2.38;60.14;102959.34;1992455;28;2847196;-84
2023/01/29 02:45:14;;;;;;;;;54.00;40.50;;;;;2.34;59.75;102953.16;2010173;28;2848209;-84
2023/01/29 02:46:35;;;;;;;;;52.00;40.50;;;;;2.35;59.37;102954.91;2000952;28;2850260;-84
2023/01/29 02:48:01;;;;;;;;;56.67;40.67;;;;;2.35;59.59;102949.72;1998549;28;3604397;-84
2023/01/29 02:49:21;;;;;;;;;55.00;39.33;;;;;2.33;59.52;102951.38;1993117;28;3601296;-84
2023/01/29 02:50:45;;;;;;;;;54.67;42.67;;;;;2.31;60.45;102946.13;2018343;28;3590888;-84
2023/01/29 02:52:17;;;;;;;;;51.67;41.00;;;;;2.32;60.27;102950.47;2016019;28;3592920;-84
2023/01/29 02:53:39;;;;;;;;;51.67;39.33;;;;;2.32;59.54;102947.03;2015850;28;3601281;-84
2023/01/29 02:55:01;;;;;;;;;48.33;37.67;;;;;2.29;59.23;102941.72;1990648;28;3596081;-84
2023/01/29 02:56:23;;;;;;;;;58.67;41.33;;;;;2.27;59.36;102931.28;2009775;28;3627338;-84
2023/01/29 02:57:39;;;;;;;;;57.33;39.67;;;;;2.30;59.81;102935.69;1992155;28;3617926;-84
2023/01/29 02:59:01;;;;;;;;;47.33;38.67;;;;;2.29;60.16;102928.75;1998296;28;3588813;-84
2023/01/29 03:00:23;;;;;;;;;57.00;43.00;;;;;2.28;59.49;102929.56;1999143;28;3608595;-84
2023/01/29 03:01:47;;;;;;;;;55.50;41.50;;;;;2.28;59.91;102919.16;2017810;28;2860673;-84
2023/01/29 03:03:06;;;;;;;;;50.33;37.33;;;;;2.28;59.81;102926.97;1987371;28;3609917;-84
2023/01/29 03:06:38;;;;;;;;;55.00;39.67;;;;;2.24;60.25;102920.78;2021042;28;3606516;-85
2023/01/29 03:07:55;;;;;;;;;55.00;44.00;;;;;2.22;59.79;102923.31;2000053;28;2857812;-84
2023/01/29 03:09:15;;;;;;;;;52.00;40.00;;;;;2.27;59.54;102922.63;1984752;28;3585636;-84
2023/01/29 03:10:44;;;;;;;;;50.40;40.00;;;;;2.24;59.98;102910.41;2032011;28;3580412;-85
2023/01/29 03:12:32;;;;;;;;;47.67;39.00;;;;;2.24;60.21;102920.78;2002391;27;3572098;-85
2023/01/29 03:15:15;;;;;;;;;63.67;44.33;;;;;2.22;60.33;102912.91;2019262;27;3618989;-85
2023/01/29 03:16:38;;;;;;;;;39.33;29.00;;;;;2.21;59.39;102918.97;1986329;28;3622116;-85
2023/01/29 03:18:24;;;;;;;;;55.33;40.33;;;;;2.19;60.61;102928.41;2023118;28;3587767;-85
2023/01/29 03:19:45;;;;;;;;;58.00;40.50;;;;;2.17;60.07;102922.28;2017549;28;2865945;-85
2023/01/29 03:21:49;;;;;;;;;58.33;40.67;;;;;2.15;59.80;102918.72;1992860;28;3624200;-85
2023/01/29 03:22:56;;;;;;;;;58.00;41.00;;;;;2.15;59.56;102926.50;2000124;28;3600587;-85
2023/01/29 03:33:05;;;;;;;;;57.67;46.33;;;;;2.14;61.18;102924.75;1993145;28;3615870;-85
2023/01/29 03:34:33;;;;;;;;;55.00;38.33;;;;;2.13;60.55;102913.47;2023218;27;3585695;-85
2023/01/29 03:36:36;;;;;;;;;;;;;;;;;;;;;
2023/01/29 03:40:21;;;;;;;;;55.00;43.50;;;;;2.13;60.49;102916.06;1981751;28;2858613;-85
2023/01/29 03:41:57;;;;;;;;;47.50;41.00;;;;;2.14;59.71;102914.38;1991478;28;2837800;-85
2023/01/29 03:48:42;;;;;;;;;;;;;;;;;;;;;
2023/01/29 10:06:11;;;;;;;;;73.00;56.33;;;;;3.27;62.65;102996.25;2015087;27;3634675;-85
2023/01/29 10:07:51;;;;;;;;;73.67;55.00;;;;;3.34;62.75;103002.53;1991304;28;3635674;-84
2023/01/29 10:09:31;;;;;;;;;64.00;48.33;;;;;3.37;62.40;103002.63;1987623;28;3617930;-84
2023/01/29 10:11:17;;;;;;;;;66.33;50.00;;;;;3.37;62.98;103003.53;1978079;28;3641292;-85
2023/01/29 10:12:49;;;;;;;;;66.67;51.00;;;;;3.43;62.58;103000.22;1965517;28;3619048;-85
2023/01/29 10:14:38;;;;;;;;;67.00;48.00;;;;;3.46;62.02;103002.06;1978584;28;3638807;-84
2023/01/29 10:17:11;;;;;;;;;;;;;;;;;;;;;
2023/01/29 10:18:39;;;;;;;;;71.00;52.67;;;;;3.48;61.57;102992.63;1966518;28;3637729;-84
2023/01/29 10:20:39;;;;;;;;;74.33;53.33;;;;;3.50;61.95;102998.75;1989943;28;3652350;-84
2023/01/29 10:22:11;;;;;;;;;72.33;53.67;;;;;3.52;61.68;102988.38;1985023;28;3646099;-84
2023/01/29 10:25:16;;;;;;;;;64.67;50.33;;;;;3.56;61.94;102998.94;1983839;28;3604405;-84
2023/01/29 10:26:32;;;;;;;;;74.00;53.67;;;;;3.57;61.95;102990.31;2013083;28;3626296;-84
2023/01/29 10:28:13;;;;;;;;;67.67;49.00;;;;;3.58;61.58;102986.00;1982167;28;3649232;-84
2023/01/29 10:29:40;;;;;;;;;;;;;;;;;;;;;
2023/01/29 10:31:19;;;;;;;;;68.33;50.00;;;;;3.64;62.11;102985.28;1991723;28;3626649;-84
2023/01/29 10:32:51;;;;;;;;;64.00;50.33;;;;;3.68;62.24;102987.19;1983420;28;3619046;-84
2023/01/29 10:34:20;;;;;;;;;68.00;51.00;;;;;3.71;62.40;102982.06;1980390;28;3607542;-84
2023/01/29 10:36:07;;;;;;;;;;;;;;;;;;;;;
2023/01/29 10:37:42;;;;;;;;;72.33;53.67;;;;;3.76;61.97;102975.28;1989008;28;3652372;-84
2023/01/29 10:38:54;;;;;;;;;68.00;52.67;;;;;3.78;62.08;102971.00;1981473;28;3628387;-83
2023/01/29 10:40:20;;;;;;;;;63.50;51.00;;;;;3.82;61.80;102972.00;1983783;28;2872202;-83
2023/01/29 10:42:08;;;;;;;;;65.33;50.67;;;;;3.82;61.97;102959.91;1989023;28;3627417;-83
2023/01/29 10:43:49;;;;;;;;;67.67;51.33;;;;;3.85;61.51;102960.81;1989150;28;3640919;-83
2023/01/29 10:45:48;;;;;;;;;68.00;51.67;;;;;3.88;61.50;102958.28;1995704;28;3620094;-83
2023/01/29 10:47:36;;;;;;;;;66.67;52.67;;;;;3.88;61.09;102945.28;1956432;28;3607607;-83
2023/01/29 10:49:12;;;;;;;;;66.33;51.33;;;;;3.87;61.23;102936.63;1997932;28;3609662;-83
2023/01/29 10:50:40;;;;;;;;;61.33;46.00;;;;;3.90;61.12;102941.88;1989110;28;3630438;-83
2023/01/29 10:52:14;;;;;;;;;62.67;45.67;;;;;3.92;61.37;102940.25;1989862;28;3613770;-83
2023/01/29 10:54:02;;;;;;;;;63.33;47.67;;;;;3.94;61.16;102941.16;1997671;28;3631498;-83
2023/01/29 10:55:34;;;;;;;;;64.67;50.33;;;;;3.97;61.55;102936.88;1993783;28;3624168;-83
2023/01/29 10:57:28;;;;;;;;;65.33;51.00;;;;;4.00;61.08;102935.25;1982749;28;3629390;-83
2023/01/29 10:58:45;;;;;;;;;58.33;47.00;;;;;4.04;60.94;102939.72;1963767;28;3611051;-83
2023/01/29 11:00:15;;;;;;;;;63.67;50.33;;;;;4.07;61.42;102938.06;1976352;28;3620022;-83
2023/01/29 11:01:27;;;;;;;;;66.00;51.67;;;;;4.08;61.27;102934.59;1975872;28;3625250;-83
2023/01/29 11:02:44;;;;;;;;;58.33;46.00;;;;;4.11;61.28;102938.19;1996156;28;3625276;-83
2023/01/29 11:03:59;;;;;;;;;65.33;49.67;;;;;4.13;61.16;102927.81;1987866;28;3626275;-83
2023/01/29 11:05:22;;;;;;;;;67.67;49.67;;;;;4.15;60.93;102931.34;1976772;28;3645072;-83
2023/01/29 11:06:35;;;;;;;;;65.67;50.67;;;;;4.20;61.09;102934.97;1979638;28;3621058;-83
2023/01/29 11:07:54;;;;;;;;;65.00;48.00;;;;;4.20;60.84;102934.09;1988031;28;3639847;-83
2023/01/29 11:09:28;;;;;;;;;67.33;49.33;;;;;4.25;60.61;102927.28;1985198;28;3638751;-83
2023/01/29 11:10:51;;;;;;;;;70.33;50.33;;;;;4.25;60.59;102920.38;1977347;28;3637774;-83
2023/01/29 11:12:11;;;;;;;;;67.00;54.00;;;;;4.30;60.60;102925.69;1981513;28;3600283;-83
2023/01/29 11:13:30;;;;;;;;;62.33;47.00;;;;;4.32;60.40;102917.97;1976967;28;3621063;-83
2023/01/29 11:14:47;;;;;;;;;57.33;44.00;;;;;4.36;60.29;102919.78;1978256;28;3603376;-83
2023/01/29 11:15:59;;;;;;;;;66.00;51.33;;;;;4.35;60.10;102908.50;2013610;28;3625252;-83
2023/01/29 11:17:19;;;;;;;;;68.00;50.00;;;;;4.42;60.48;102914.75;1989972;28;3636715;-83
2023/01/29 11:18:53;;;;;;;;;69.00;50.33;;;;;4.44;60.78;102917.41;1971300;28;3635672;-83
2023/01/29 11:20:25;;;;;;;;;63.33;49.67;;;;;4.49;60.37;102918.44;1977527;28;3616882;-83
2023/01/29 11:21:55;;;;;;;;;66.33;50.33;;;;;4.52;60.13;102915.88;1978643;28;3635663;-83
2023/01/29 11:23:38;;;;;;;;;58.33;48.33;;;;;4.54;59.94;102905.53;1979759;28;3607539;-83
2023/01/29 11:25:17;;;;;;;;;67.67;51.00;;;;;4.57;60.25;102903.88;1967414;28;3641960;-84
2023/01/29 11:26:36;;;;;;;;;61.67;49.33;;;;;4.64;59.94;102907.56;1978662;28;3624251;-83
2023/01/29 11:27:52;;;;;;;;;69.67;51.00;;;;;4.68;60.20;102912.00;1990287;28;3650328;-84
2023/01/29 11:29:04;;;;;;;;;69.00;52.33;;;;;4.70;60.29;102910.31;1983674;28;3621052;-84
2023/01/29 11:30:23;;;;;;;;;61.67;49.00;;;;;4.72;60.06;102907.72;1989807;28;3608628;-84
2023/01/29 11:31:40;;;;;;;;;64.00;50.33;;;;;4.77;59.85;102910.47;1980093;28;3623491;-84
2023/01/29 11:33:18;;;;;;;;;62.33;48.33;;;;;4.81;60.08;102921.03;1976828;28;3616934;-84
2023/01/29 11:34:32;;;;;;;;;60.00;46.00;;;;;4.83;59.77;102903.72;1971225;28;3627340;-83
2023/01/29 11:35:44;;;;;;;;;61.00;47.67;;;;;4.87;59.76;102911.59;1981678;28;3618984;-84
2023/01/29 11:37:02;;;;;;;;;61.67;46.67;;;;;4.90;59.58;102903.84;1978397;28;3620077;-84
2023/01/29 11:38:27;;;;;;;;;62.00;48.00;;;;;4.94;59.53;102905.69;1982141;28;3607630;-83
2023/01/29 11:39:44;;;;;;;;;62.67;46.67;;;;;4.95;59.71;102894.44;1975764;28;3636727;-84
2023/01/29 11:41:17;;;;;;;;;42.33;32.67;;;;;4.99;59.35;102892.81;1976635;28;3602370;-84
2023/01/29 11:42:30;;;;;;;;;56.00;45.33;;;;;5.02;59.01;102895.47;2003074;28;3602318;-84
2023/01/29 11:43:44;;;;;;;;;56.67;44.67;;;;;5.04;58.68;102893.78;1974835;28;3612797;-84
2023/01/29 11:44:55;;;;;;;;;55.33;44.33;;;;;5.07;59.11;102892.16;1977588;28;3616945;-84
2023/01/29 11:46:16;;;;;;;;;61.00;47.33;;;;;5.08;58.98;102885.22;2000929;28;3606492;-84
2023/01/29 11:47:31;;;;;;;;;57.00;45.67;;;;;5.14;59.15;102889.69;1981219;28;3618022;-84
2023/01/29 11:48:49;;;;;;;;;61.67;45.67;;;;;5.14;59.12;102884.47;1993242;28;3627333;-84
2023/01/29 11:50:04;;;;;;;;;58.00;43.00;;;;;5.15;58.58;102881.91;1990638;28;3623183;-84
2023/01/29 11:51:31;;;;;;;;;57.50;44.00;;;;;5.17;58.50;102881.94;1986052;28;2864886;-84
2023/01/29 11:52:45;;;;;;;;;64.67;46.67;;;;;5.21;58.58;102882.91;1975770;28;3626335;-85
2023/01/29 11:54:02;;;;;;;;;60.00;47.00;;;;;5.22;58.86;102876.84;1976508;28;3619068;-83
2023/01/29 11:55:22;;;;;;;;;58.00;44.50;;;;;5.26;58.72;102884.75;1974073;28;2884655;-84
2023/01/29 11:56:41;;;;;;;;;59.33;47.00;;;;;5.30;58.36;102880.53;1975219;28;3612754;-84
2023/01/29 11:58:05;;;;;;;;;55.00;41.00;;;;;5.29;58.64;102874.41;1975750;28;3611740;-84
2023/01/29 11:59:47;;;;;;;;;56.00;42.67;;;;;5.32;58.25;102868.41;1983319;28;3590907;-84
2023/01/29 12:01:08;;;;;;;;;59.00;47.33;;;;;5.36;58.65;102880.66;1979972;28;3613783;-84
2023/01/29 12:02:30;;;;;;;;;55.67;41.33;;;;;5.42;58.86;102879.03;1984962;28;3613270;-84
2023/01/29 12:03:55;;;;;;;;;56.00;43.00;;;;;5.44;58.87;102877.34;1977078;28;3612769;-85
2023/01/29 12:05:26;;;;;;;;;58.50;45.00;;;;;5.46;58.76;102871.31;1978844;28;2874250;-84
2023/01/29 12:06:43;;;;;;;;;57.00;44.00;;;;;5.52;58.98;102870.59;1986679;28;3621064;-84
2023/01/29 12:07:58;;;;;;;;;61.33;46.00;;;;;5.56;58.62;102876.72;1980017;28;3618976;-84
2023/01/29 12:09:18;;;;;;;;;57.00;45.00;;;;;5.59;58.71;102872.47;1977030;28;3608615;-84
2023/01/29 12:10:38;;;;;;;;;55.67;40.00;;;;;5.63;57.93;102878.63;1974640;28;3610667;-84
2023/01/29 12:11:51;;;;;;;;;50.33;39.67;;;;;5.65;58.14;102871.75;1974046;28;3589880;-84
2023/01/29 12:13:08;;;;;;;;;53.00;39.33;;;;;5.70;57.99;102867.53;1973211;28;3598221;-85
2023/01/29 12:14:32;;;;;;;;;50.67;42.00;;;;;5.74;57.89;102869.34;1994731;28;3609641;-84
2023/01/29 12:15:44;;;;;;;;;54.33;39.67;;;;;5.80;58.25;102865.97;1978570;28;3608581;-84
2023/01/29 12:17:09;;;;;;;;;59.00;46.00;;;;;5.84;58.47;102859.09;1974781;28;3623226;-84
2023/01/29 12:21:51;;;;;;;;;;;;;;;;;;;;;
2023/01/29 12:23:58;;;;;;;;;55.33;44.00;;;;;5.97;57.62;102852.41;1965308;28;3614899;-85
2023/01/29 12:26:02;;;;;;;;;;;;;;;;;;;;;
2023/01/29 12:29:48;;;;;;;;;;;;;;;;;;;;;
2023/01/29 12:31:09;;;;;;;;;59.33;44.67;;;;;6.06;56.88;102851.69;1954126;28;3626320;-85
2023/01/29 12:32:53;;;;;;;;;55.00;43.00;;;;;6.07;57.25;102850.91;1951077;28;3616949;-85
2023/01/29 12:34:30;;;;;;;;;63.00;46.00;;;;;6.08;56.94;102848.31;1958260;28;2876733;-85
2023/01/29 12:36:28;;;;;;;;;60.50;45.00;;;;;6.07;57.04;102846.53;1959889;28;2877762;-85
2023/01/29 12:38:49;;;;;;;;;56.33;40.67;;;;;6.12;56.51;102851.88;1955960;28;3614861;-86
2023/01/29 12:42:28;;;;;;;;;51.33;37.67;;;;;6.15;56.56;102830.16;1964650;28;3612789;-85
2023/01/29 12:44:34;;;;;;;;;;;;;;;;;;;;;
2023/01/29 12:47:58;;;;;;;;;52.00;39.33;;;;;6.18;55.54;102825.88;2002786;28;3616209;-85
2023/01/29 12:49:52;;;;;;;;;30.50;27.50;;;;;6.19;55.88;102826.75;1978190;28;2835749;-84
2023/01/29 12:51:28;;;;;;;;;25.00;21.00;;;;;6.19;55.05;102822.41;1989910;28;3589800;-85
2023/01/29 12:53:20;;;;;;;;;39.50;31.00;;;;;6.22;54.97;102818.09;2002553;28;2868274;-85
2023/01/29 13:12:00;;;;;;;;;;;;;;;;;;;;;
2023/01/29 13:16:31;;;;;;;;;;;;;;;;;;;;;
2023/01/29 13:18:32;;;;;;;;;;;;;;;;;;;;;
2023/01/29 13:50:41;;;;;;;;;12.00;12.00;;;;;6.35;53.52;102753.88;1901627;30;1827427;-85
2023/01/29 13:54:59;;;;;;;;;;;;;;;;;;;;;
2023/01/29 13:59:56;;;;;;;;;17.00;13.00;;;;;6.29;53.66;102734.66;1879579;30;1853397;-86
2023/01/29 14:01:51;;;;;;;;;15.50;13.50;;;;;6.26;53.83;102726.78;1858311;30;2821137;-85
2023/01/29 14:04:29;;;;;;;;;17.00;13.00;;;;;6.30;54.22;102731.19;1849728;30;2823256;-86
2023/01/29 14:10:57;;;;;;;;;20.00;14.00;;;;;6.22;53.43;102711.91;1879104;30;2813877;-86
2023/01/29 14:16:45;;;;;;;;;16.00;14.00;;;;;6.19;53.75;102704.03;1890004;29;2806587;-85
2023/01/29 14:18:20;;;;;;;;;;;;;;;;;;;;;
2023/01/29 14:20:21;;;;;;;;;19.00;18.00;;;;;6.16;53.92;102694.41;1921159;29;2819090;-85
2023/01/29 14:21:49;;;;;;;;;17.00;16.50;;;;;6.13;54.29;102686.50;1924783;29;2825323;-85
2023/01/29 14:23:51;;;;;;;;;22.00;19.83;;;;;6.17;54.22;102695.28;1947499;29;1833689;-86
2023/01/29 14:25:58;;;;;;;;;;;;;;;;;;;;;
2023/01/29 14:27:29;;;;;;;;;18.67;15.50;;;;;6.17;53.71;102703.97;1967202;29;1837929;-85
2023/01/29 14:28:53;;;;;;;;;18.50;15.50;;;;;6.16;53.57;102694.41;1918892;29;2819018;-85
2023/01/29 14:30:26;;;;;;;;;20.17;17.50;;;;;6.18;53.58;102699.63;1951582;29;1837821;-85
2023/01/29 14:32:06;;;;;;;;;21.00;18.33;;;;;6.18;53.89;102694.41;1931649;28;2835762;-85
2023/01/29 14:37:20;;;;;;;;;16.00;15.00;;;;;6.15;53.49;102679.56;1974896;28;2810719;-85
2023/01/29 14:39:33;;;;;;;;;;;;;;;;;;;;;
2023/01/29 14:43:20;;;;;;;;;18.50;13.50;;;;;6.15;54.25;102682.19;1937308;28;2819064;-85
2023/01/29 14:46:51;;;;;;;;;15.50;14.50;;;;;6.19;54.00;102683.13;1937136;28;2812799;-85
2023/01/29 14:48:18;;;;;;;;;15.17;14.50;;;;;6.21;53.80;102677.91;1970211;28;1837857;-84